New Buffalo, Pennsylvania
Current Conditions -  °F | °C
As of 7:56 PM on Friday 21 Nov 2014 (Local Time) from KCXY Reporting Station
Clear Clear  
Wind Chill: 26°   Ceiling: Unl
Heat Index: 26°   Visibility: 10mi
Dew Point: 11°   Wind: 3mph
Humidity: 53%   Direction: 270°W
Pressure: 30.52"   Gusts: NA
Location:  40.45°N, 76.97°W
Report Text: KCXY 220056Z 27003KT 10SM CLR M03/M12 A3052 RMK AO2 SLP341 T10331117
Loading
Personal Weather Stations






























Interactive Weather Map New forecast layout! Learn more

10-Day Weather Forecast

Advertisements
Track Severe Weather on mobile